20°C
Woerden, The Nederlands
Taal:  Nederlands
Updated03/07/2022 14:30 
 

Nearby METAR Reports

EHAM - Amsterdam/Schiph, Netherlands
Distance from station: N 27km
Updated: 03/07/2022 14:25
Gedeeltelijk bewolkt
Gedeeltelijk bewolkt
 Wind van W
Wind: W 24 km/h
Temperatuur: 20°C
Dauwpunt: 13°C
Vochtigheid: 64%
Barometer: 1018 hPa
Clouds: Gedeeltelijk bewolkt
Visibility: 10 km
Cloud details: Few Clouds 762 m
Gedeeltelijk bewolkt 914 m
2022/07/03 12:25 EHAM 031225Z 27013KT 240V300 9999 FEW025TCU SCT030 20/13 Q1018 NOSIG
EHRD - Rotterdam Airpor, Netherlands
Distance from station: WZW 30km
Updated: 03/07/2022 14:25
Meestal bewolkt
Meestal bewolkt
 Wind van W
Wind: W 19 km/h
Temperatuur: 19°C
Dauwpunt: 13°C
Vochtigheid: 68%
Barometer: 1018 hPa
Clouds: Meestal bewolkt
Visibility: 10 km
Cloud details: Few Clouds 792 m
Gedeeltelijk bewolkt 914 m
Meestal bewolkt 1189 m
2022/07/03 12:25 EHRD 031225Z AUTO 26010KT 220V320 9999 FEW026 SCT030 BKN039 19/13 Q1018 NOSIG
 
EHGR - Gilze-Rijen Rnla, Netherlands
Distance from station: Z 57km
Updated: 03/07/2022 14:25
Few Clouds
Few Clouds
 Wind van ZW
Wind: ZW 17 km/h
Temperatuur: 22°C
Dauwpunt: 12°C
Vochtigheid: 53%
Barometer: 1018 hPa
Clouds: Few Clouds
Visibility: 10 km
Cloud details: Few Clouds 2134 m
2022/07/03 12:25 EHGR 031225Z AUTO 23009KT 190V280 9999 FEW070 22/12 Q1018 BLU NOSIG
EHDL - Deelen Rnlafb, Netherlands
Distance from station: O 71km
Updated: 03/07/2022 14:25
Meestal bewolkt
Meestal bewolkt
 Wind van WZW
Wind: WZW 24 km/h
Temperatuur: 22°C
Dauwpunt: 11°C
Vochtigheid: 50%
Barometer: 1018 hPa
Clouds: Meestal bewolkt
Visibility: 10 km
Cloud details: Gedeeltelijk bewolkt 1311 m
Gedeeltelijk bewolkt 1463 m
Meestal bewolkt 2408 m
2022/07/03 12:25 EHDL 031225Z AUTO 25013KT 140V300 9999 SCT043 SCT048 BKN079 22/11 Q1018 BLU
 
EHVK - Volkel Rnlafb, Netherlands
Distance from station: ZO 77km
Updated: 03/07/2022 14:25
Meestal bewolkt
Meestal bewolkt
 Wind van W
Wind: W 15 km/h
Temperatuur: 21°C
Dauwpunt: 12°C
Vochtigheid: 57%
Barometer: 1018 hPa
Clouds: Meestal bewolkt
Visibility: 10 km
Cloud details: Meestal bewolkt 1128 m
Meestal bewolkt 1311 m
2022/07/03 12:25 EHVK 031225Z AUTO 27008KT 200V310 9999 BKN037 BKN043 21/12 Q1018 BLU
EHWO - Woensdrecht Rnla, Netherlands
Distance from station: ZZW 78km
Updated: 03/07/2022 14:25
Meestal bewolkt
Meestal bewolkt
 Wind van W
Wind: W 22 km/h
Temperatuur: 20°C
Dauwpunt: 12°C
Vochtigheid: 60%
Barometer: 1019 hPa
Clouds: Meestal bewolkt
Visibility: 10 km
Cloud details: Few Clouds 975 m
Gedeeltelijk bewolkt 1433 m
Meestal bewolkt 1585 m
2022/07/03 12:25 EHWO 031225Z AUTO 28012KT 220V340 9999 FEW032 SCT047 BKN052 20/12 Q1019 BLU
 
EHEH - Eindhoven Rnlafb, Netherlands
Distance from station: ZZO 81km
Updated: 03/07/2022 14:25
Gedeeltelijk bewolkt
Gedeeltelijk bewolkt
 Wind van WZW
Wind: WZW 19 km/h
Temperatuur: 21°C
Dauwpunt: 12°C
Vochtigheid: 57%
Barometer: 1018 hPa
Clouds: Gedeeltelijk bewolkt
Visibility: 10 km
Cloud details: Few Clouds 1097 m
Gedeeltelijk bewolkt 1250 m
2022/07/03 12:25 EHEH 031225Z AUTO 25010KT 190V360 9999 FEW036 SCT041 21/12 Q1018 BLU NOSIG
EHSC - Goeree Le Sea, Netherlands
Distance from station: W 81km
Updated: 03/07/2022 14:25

 Wind van W
Wind: W 28 km/h
Temperatuur: 16°C
Dauwpunt: 13°C
Vochtigheid: 83%
Barometer: 1019 hPa
Visibility: 10 km
2022/07/03 12:25 EHSC 031225Z AUTO 26015KT 9999 ///////// 16/13 Q1019 W18/H6